ADDS METAR Data INFO
IDs: Format: Raw Decoded Include TAF

Data at: 1537 UTC 25 Feb 2018

KHVR 251453Z AUTO 22022KT 10SM FEW085 M08/M11 A2956 RMK AO2 PK WND 23029/1434 SLP051 T10781111 58009
KHVR 251353Z AUTO 22021KT 10SM BKN090 M09/M12 A2957 RMK AO2 SLP053 T10941122
KHVR 251253Z AUTO 22018KT 10SM CLR M09/M13 A2959 RMK AO2 SLP058 T10891128
KHVR 251153Z AUTO 22020KT 10SM CLR M09/M13 A2959 RMK AO2 PK WND 21027/1100 SLP057 T10941133 11089 21172 56021
KHVR 251053Z AUTO 22013KT 10SM CLR M12/M16 A2960 RMK AO2 SLP066 T11221156
KHVR 250953Z AUTO 23017KT 10SM CLR M13/M17 A2963 RMK AO2 SLP076 T11331167
KHVR 250853Z AUTO 25005KT 10SM CLR M15/M18 A2966 RMK AO2 SLP088 T11501178 58018
KHVR 250753Z AUTO 26006KT 10SM CLR M16/M18 A2968 RMK AO2 SLP097 T11561183
KHVR 250653Z AUTO 23011KT 10SM CLR M14/M17 A2969 RMK AO2 SLP101 T11391167 410501144
KHVR 250553Z AUTO 22017KT 10SM CLR M13/M16 A2971 RMK AO2 SLP108 T11331161 11056 21133 51002
KHVR 250453Z AUTO 23015KT 10SM CLR M12/M15 A2971 RMK AO2 SLP107 T11221150
KHVR 250353Z AUTO 22016KT 10SM CLR M11/M14 A2971 RMK AO2 SLP110 T11111139
KHVR 250253Z AUTO 24013KT 10SM CLR M10/M13 A2971 RMK AO2 SLP106 T11001128 53004
KHVR 250153Z AUTO 23015KT 10SM CLR M07/M11 A2970 RMK AO2 SLP099 T10721106
KHVR 250053Z AUTO 22015KT 10SM OVC095 M07/M10 A2970 RMK AO2 SLP097 T10671100
KHVR 242353Z AUTO 22016KT 10SM OVC060 M06/M09 A2970 RMK AO2 SNE2259 SLP095 P0000 60000 T10561089 11050 21083 51007
KHVR 242253Z AUTO 22013KT 5SM -SN BR BKN039 OVC047 M06/M08 A2970 RMK AO2 SNB2157 SLP095 P0000 T10611078
KHVR 242153Z AUTO 23015KT 9SM BKN043 OVC050 M07/M10 A2969 RMK AO2 SLP093 T10671100
KHVR 242053Z AUTO 23016KT 10SM SCT032 M07/M11 A2967 RMK AO2 SLP088 T10671106 58003
KHVR 242022Z AUTO 22015KT 10SM SCT027 BKN070 M07/M11 A2968 RMK AO2 T10671106
KHVR 241953Z AUTO 23016KT 10SM BKN024 BKN075 M07/M11 A2968 RMK AO2 SLP091 T10671111
KHVR 241853Z AUTO 22021KT 10SM CLR M08/M12 A2968 RMK AO2 PK WND 22026/1801 SLP095 T10781117
KHVR 241753Z AUTO 22021KT 10SM CLR M08/M12 A2968 RMK AO2 PK WND 22029/1730 SLP094 T10831117 11083 21128 56002
KHVR 241653Z AUTO 22024KT 10SM CLR M09/M13 A2968 RMK AO2 PK WND 22028/1629 SLP095 T10941128
KHVR 241553Z AUTO 24018KT 10SM CLR M13/M16 A2969 RMK AO2 SLP099 T11281156
KHVR 241453Z AUTO 23023KT 10SM CLR M11/M14 A2969 RMK AO2 PK WND 22026/1428 SLP100 T11111144 57007
KHVR 241353Z AUTO 22021KT 10SM OVC065 M10/M13 A2970 RMK AO2 PK WND 23028/1312 SLP100 T11001133
KHVR 241253Z AUTO 23025KT 7SM OVC046 M09/M12 A2971 RMK AO2 PK WND 23030/1238 SLP103 T10941122
KHVR 241153Z AUTO 22022KT 10SM FEW070 FEW120 M09/M13 A2971 RMK AO2 PK WND 22029/1118 SLP103 T10941128 11083 21117 55012
KHVR 241053Z AUTO 22024KT 9SM OVC080 M09/M12 A2971 RMK AO2 PK WND 22029/1048 SLP108 T10891117
KHVR 240953Z AUTO 22022KT 10SM OVC090 M08/M12 A2973 RMK AO2 PK WND 21026/0908 SLP116 T10831122
KHVR 240853Z AUTO 22020KT 10SM BKN080 M09/M13 A2975 RMK AO2 SLP125 T10941133 58011
KHVR 240753Z AUTO 22019KT 10SM FEW080 M11/M14 A2977 RMK AO2 SLP132 T11061144
KHVR 240653Z AUTO 22015KT 10SM CLR M11/M15 A2978 RMK AO2 SLP139 T11111150 410721272
KHVR 240553Z AUTO 21019KT 10SM CLR M10/M14 A2979 RMK AO2 SLP144 T11001144 11072 21117 56011
KHVR 240453Z AUTO 21021KT 10SM CLR M09/M14 A2980 RMK AO2 PK WND 21027/0451 SLP148 T10941139
KHVR 240353Z AUTO 21020KT 10SM CLR M09/M14 A2981 RMK AO2 SLP153 T10891139